Nearby METAR Reports

 

KLZU - Lawrenceville, Georgia, USA
Distance from station: WNW 7mi, 11km
Updated: Wed, 21-Feb-2018 7:56pm EST
Clear
Clear
 Wind from calm
Wind: Calm
Temperature: 66°F , 19°C
Dew Point: 63°F , 17°C
Humidity: 88%
Barometer: 30.36 inHg , 1028.1 hPa
Clouds: Clear
Visibility: 10 miles , 16 km
2018/02/22 00:56 KLZU 220056Z 00000KT 10SM CLR 19/17 A3036 RMK AO2 SLP275 T01940172 $
KWDR - Winder/Barrow, Georgia, USA
Distance from station: E 11mi, 18km
Updated: Wed, 21-Feb-2018 7:55pm EST
Clear
Clear
 Wind from SE
Wind: SE 5 mph , 7 km/h
Temperature: 68°F , 20°C
Dew Point: 64°F , 18°C
Humidity: 88%
Barometer: 30.40 inHg , 1029.5 hPa
Clouds: Clear
Visibility: 10 miles , 16 km
2018/02/22 00:55 KWDR 220055Z AUTO 14004KT 10SM CLR 20/18 A3040 RMK AO1
 
KGVL - Gainesville, Georgia, USA
Distance from station: N 22mi, 35km
Updated: Wed, 21-Feb-2018 7:53pm EST
Clear
Clear
 Wind from calm
Wind: Calm
Temperature: 68°F , 20°C
Dew Point: 63°F , 17°C
Humidity: 83%
Barometer: 30.39 inHg , 1029.1 hPa
Clouds: Clear
Visibility: 10 miles , 16 km
2018/02/22 00:53 KGVL 220053Z AUTO 00000KT 10SM CLR 20/17 A3039 RMK AO2 SLP280 T02000172
KPDK - Peachtree/Dekalb, Georgia, USA
Distance from station: W 26mi, 42km
Updated: Wed, 21-Feb-2018 7:53pm EST
Clear
Clear
 Wind from calm
Wind: Calm
Temperature: 70°F , 21°C
Dew Point: 63°F , 17°C
Humidity: 78%
Barometer: 30.36 inHg , 1028.1 hPa
Clouds: Clear
Visibility: 10 miles , 16 km
2018/02/22 00:53 KPDK 220053Z 00000KT 10SM CLR 21/17 A3036 RMK AO2 SLP270 T02060167
 
KAHN - Athens, Georgia, USA
Distance from station: E 30mi, 48km
Updated: Wed, 21-Feb-2018 7:51pm EST
Clear
Clear
 Wind from SE
Wind: SE 3 mph , 6 km/h
Temperature: 68°F , 20°C
Dew Point: 64°F , 18°C
Humidity: 88%
Barometer: 30.37 inHg , 1028.4 hPa
Clouds: Clear
Visibility: 10 miles , 16 km
2018/02/22 00:51 KAHN 220051Z AUTO 13003KT 10SM CLR 20/18 A3037 RMK AO2 SLP282 T02000178
KMGE - Dobbins Afb/Mari, Georgia, USA
Distance from station: W 38mi, 61km
Updated: Wed, 21-Feb-2018 7:56pm EST
Partly cloudy
Partly cloudy
 Wind from ESE
Wind: ESE 6 mph , 9 km/h
Temperature: 72°F , 22°C
Dew Point: 63°F , 17°C
Humidity: 73%
Barometer: 30.35 inHg , 1027.8 hPa
Clouds: Partly cloudy
Visibility: 10 miles , 16 km
Cloud details: Partly cloudy 3500 ft
2018/02/22 00:56 KMGE 220056Z 12005KT 10SM SCT035 22/17 A3035 RMK AO2A SLP272 T02160172 $
 
KFTY - Atlanta/Fulton, Georgia, USA
Distance from station: WSW 40mi, 64km
Updated: Wed, 21-Feb-2018 7:53pm EST
Clear
Clear
 Wind from calm
Wind: Calm
Temperature: 72°F , 22°C
Dew Point: 64°F , 18°C
Humidity: 78%
Barometer: 30.34 inHg , 1027.4 hPa
Clouds: Clear
Visibility: 10 miles , 16 km
2018/02/22 00:53 KFTY 220053Z 00000KT 10SM CLR 22/18 A3034 RMK AO2 SLP269 T02170183
KATL - Atlanta, Georgia, USA
Distance from station: WSW 41mi, 65km
Updated: Wed, 21-Feb-2018 7:52pm EST
Few Clouds
Few Clouds
 Wind from SSE
Wind: SSE 7 mph , 11 km/h
Temperature: 72°F , 22°C
Dew Point: 64°F , 18°C
Humidity: 78%
Barometer: 30.35 inHg , 1027.8 hPa
Clouds: Few Clouds
Visibility: 10 miles , 16 km
Cloud details: Few Clouds 8000 ft
Few Clouds 25000 ft
2018/02/22 00:52 KATL 220052Z 15006KT 10SM FEW080 FEW250 22/18 A3035 RMK AO2 SLP271 T02220183
 
KCNI - Canton/Cherokee, Georgia, USA
Distance from station: NW 41mi, 65km
Updated: Wed, 21-Feb-2018 7:55pm EST
Clear
Clear
 Wind from ESE
Wind: ESE 3 mph , 6 km/h
Temperature: 72°F , 22°C
Dew Point: 64°F , 18°C
Humidity: 78%
Barometer: 30.38 inHg , 1028.8 hPa
Clouds: Clear
Visibility: 10 miles , 16 km
2018/02/22 00:55 KCNI 220055Z AUTO 11003KT 10SM CLR 22/18 A3038 RMK AO2
KRYY - Marietta Mccolum, Georgia, USA
Distance from station: W 43mi, 69km
Updated: Wed, 21-Feb-2018 7:48pm EST
Clear
Clear
 Wind from SE
Wind: SE 5 mph , 7 km/h
Temperature: 70°F , 21°C
Dew Point: 63°F , 17°C
Humidity: 78%
Barometer: 30.36 inHg , 1028.1 hPa
Clouds: Clear
Visibility: 10 miles , 16 km
2018/02/22 00:48 KRYY 220048Z 13004KT 10SM CLR 21/17 A3036 RMK AO2 SLP998 T02110172
 
K3J7 - Greensboro, Georgia, USA
Distance from station: ESE 48mi, 78km
Updated: Wed, 21-Feb-2018 7:55pm EST
Clear
Clear
 Wind from calm
Wind: Calm
Temperature: 73°F , 23°C
Dew Point: 64°F , 18°C
Humidity: 74%
Barometer: 30.35 inHg , 1027.8 hPa
Clouds: Clear
Visibility: 10 miles , 16 km
2018/02/22 00:55 K3J7 220055Z AUTO 00000KT 10SM CLR 23/18 A3035 RMK AO2
KTOC - Toccoa, Georgia, USA
Distance from station: NE 55mi, 88km
Updated: Wed, 21-Feb-2018 7:55pm EST
Clear
Clear
 Wind from calm
Wind: Calm
Temperature: 70°F , 21°C
Dew Point: 66°F , 19°C
Humidity: 88%
Barometer: 30.39 inHg , 1029.1 hPa
Clouds: Clear
Visibility: 10 miles , 16 km
2018/02/22 00:55 KTOC 220055Z AUTO 00000KT 10SM CLR 21/19 A3039 RMK AO2 T02090192
 
K6A2 - Griffin-Spalding, Georgia, USA
Distance from station: SSW 55mi, 89km
Updated: Wed, 21-Feb-2018 7:55pm EST
Clear
Clear
 Wind from calm
Wind: Calm
Temperature: 70°F , 21°C
Dew Point: 64°F , 18°C
Humidity: 83%
Barometer: 30.36 inHg , 1028.1 hPa
Clouds: Clear
Visibility: 10 miles , 16 km
2018/02/22 00:55 K6A2 220055Z AUTO 00000KT 10SM CLR 21/18 A3036 RMK AO2
KFFC - Peachtree City, Georgia, USA
Distance from station: SW 58mi, 94km
Updated: Wed, 21-Feb-2018 7:53pm EST
Clear
Clear
 Wind from calm
Wind: Calm
Temperature: 68°F , 20°C
Dew Point: 64°F , 18°C
Humidity: 88%
Barometer: 30.36 inHg , 1028.1 hPa
Clouds: Clear
Visibility: 10 miles , 16 km
2018/02/22 00:53 KFFC 220053Z AUTO 00000KT 10SM CLR 20/18 A3036 RMK AO2 SLP276 T02000178
 
KVPC - Cartersville, Georgia, USA
Distance from station: WNW 58mi, 94km
Updated: Wed, 21-Feb-2018 7:53pm EST
Mostly cloudy
Mostly cloudy
 Wind from SE
Wind: SE 3 mph , 6 km/h
Temperature: 70°F , 21°C
Dew Point: 64°F , 18°C
Humidity: 83%
Barometer: 30.34 inHg , 1027.4 hPa
Clouds: Mostly cloudy
Visibility: 10 miles , 16 km
Cloud details: Mostly cloudy 8000 ft
2018/02/22 00:53 KVPC 220053Z AUTO 13003KT 10SM BKN080 21/18 A3034 RMK AO2 SLP263 T02060183
KIIY - Washington, Georgia, USA
Distance from station: E 61mi, 98km
Updated: Wed, 21-Feb-2018 7:55pm EST
Clear
Clear
 Wind from calm
Wind: Calm
Temperature: 64°F , 18°C
Dew Point: 63°F , 17°C
Humidity: 94%
Barometer: 30.37 inHg , 1028.4 hPa
Clouds: Clear
Visibility: 10 miles , 16 km
2018/02/22 00:55 KIIY 220055Z AUTO 00000KT 10SM CLR 18/17 A3037 RMK AO2 TSNO
 
KPUJ - Atlanta/Paulding, Georgia, USA
Distance from station: W 62mi, 99km
Updated: Wed, 21-Feb-2018 7:55pm EST
Clear
Clear
 Wind from calm
Wind: Calm
Temperature: 72°F , 22°C
Dew Point: 70°F , 21°C
Humidity: 94%
Barometer: 30.35 inHg , 1027.8 hPa
Clouds: Clear
Visibility: 7 miles , 11 km
2018/02/22 00:55 KPUJ 220055Z AUTO 00000KT 7SM CLR 22/21 A3035 RMK AO2
KMLJ - Milledgeville, Georgia, USA
Distance from station: SE 66mi, 106km
Updated: Wed, 21-Feb-2018 7:55pm EST
Clear
Clear
 Wind from calm
Wind: Calm
Temperature: 70°F , 21°C
Dew Point: 64°F , 18°C
Humidity: 83%
Barometer: 30.36 inHg , 1028.1 hPa
Clouds: Clear
Visibility: 10 miles , 16 km
2018/02/22 00:55 KMLJ 220055Z AUTO 00000KT 10SM CLR 21/18 A3036 RMK AO2
 
KCCO - Newnan, Georgia, USA
Distance from station: SW 68mi, 110km
Updated: Wed, 21-Feb-2018 7:55pm EST
Clear
Clear
 Wind from SSE
Wind: SSE 5 mph , 7 km/h
Temperature: 70°F , 21°C
Dew Point: 63°F , 17°C
Humidity: 78%
Barometer: 30.36 inHg , 1028.1 hPa
Clouds: Clear
Visibility: 10 miles , 16 km
2018/02/22 00:55 KCCO 220055Z AUTO 15004KT 10SM CLR 21/17 A3036 RMK AO2 T02100166
KOPN - Thomaston Upson, Georgia, USA
Distance from station: SSW 73mi, 118km
Updated: Wed, 21-Feb-2018 7:55pm EST
Clear
Clear
 Wind from SE
Wind: SE 5 mph , 7 km/h
Temperature: 68°F , 20°C
Dew Point: 59°F , 15°C
Humidity: 73%
Barometer: 30.37 inHg , 1028.4 hPa
Clouds: Clear
Visibility: 10 miles , 16 km
2018/02/22 00:55 KOPN 220055Z AUTO 14004KT 10SM CLR 20/15 A3037 RMK AO2